Time;durP1;ratioP1;P1;durP2;ratioP2;P2;SDS_P1;SDS_P2;PMS_P1;PMS_P2;Temp;Humidity;BMP_temperature;BMP_pressure;BME280_temperature;BME280_humidity;BME280_pressure;Samples;Min_cycle;Max_cycle;Signal;HPM_P1;HPM_P2
2022/05/20 00:01:06;;;;;;;16.80;14.35;;;15.50;99.90;;;;;;5077896;28;20123;-69
2022/05/20 00:03:33;;;;;;;14.63;13.13;;;15.50;99.90;;;;;;5093793;28;20469;-69
2022/05/20 00:05:59;;;;;;;;;;;15.40;99.90;;;;;;5097488;28;20119;-69
2022/05/20 00:08:25;;;;;;;13.73;12.35;;;15.40;99.90;;;;;;5085502;28;19999;-69
2022/05/20 00:10:53;;;;;;;13.95;12.45;;;15.40;99.90;;;;;;5095066;28;20491;-69
2022/05/20 00:13:23;;;;;;;14.77;12.95;;;15.40;99.90;;;;;;5098163;28;20115;-70
2022/05/20 00:15:50;;;;;;;14.48;12.70;;;15.40;99.90;;;;;;5098280;28;20079;-69
2022/05/20 00:18:15;;;;;;;13.93;12.13;;;15.40;99.90;;;;;;5096062;28;20051;-69
2022/05/20 00:20:41;;;;;;;13.10;11.75;;;15.30;99.90;;;;;;5100015;28;20044;-69
2022/05/20 00:23:07;;;;;;;14.13;12.73;;;15.30;99.90;;;;;;5088509;28;20138;-69
2022/05/20 00:25:48;;;;;;;14.73;11.95;;;15.40;99.90;;;;;;5087024;28;20166;-69
2022/05/20 00:28:16;;;;;;;13.52;12.13;;;15.30;99.90;;;;;;5083864;28;20044;-69
2022/05/20 00:30:42;;;;;;;12.70;11.40;;;15.30;99.90;;;;;;5081012;28;20071;-69
2022/05/20 00:33:08;;;;;;;13.02;11.70;;;15.30;99.90;;;;;;5087388;28;20050;-69
2022/05/20 00:35:35;;;;;;;15.13;11.13;;;15.30;99.90;;;;;;5092634;28;20040;-69
2022/05/20 00:38:01;;;;;;;12.15;10.00;;;15.30;99.90;;;;;;5084408;28;20052;-69
2022/05/20 00:40:28;;;;;;;13.85;10.43;;;15.20;99.90;;;;;;5100698;28;20085;-69
2022/05/20 00:43:32;;;;;;;12.82;10.68;;;15.20;99.90;;;;;;5091909;28;20070;-69
2022/05/20 00:46:08;;;;;;;12.32;11.02;;;15.10;99.90;;;;;;5006560;28;20175;-69
2022/05/20 00:48:34;;;;;;;13.18;10.13;;;15.10;99.90;;;;;;5025031;28;20064;-69
2022/05/20 00:51:06;;;;;;;11.70;9.60;;;15.10;99.90;;;;;;5056500;28;20044;-69
2022/05/20 00:53:41;;;;;;;12.57;8.93;;;15.10;99.90;;;;;;5090425;28;20044;-69
2022/05/20 00:56:13;;;;;;;10.63;8.07;;;15.10;99.90;;;;;;5088687;28;20127;-69
2022/05/20 00:58:41;;;;;;;10.68;8.23;;;15.00;99.90;;;;;;5084924;28;20036;-69
2022/05/20 01:01:07;;;;;;;9.85;8.80;;;15.00;99.90;;;;;;5088498;28;20055;-69
2022/05/20 01:03:33;;;;;;;10.40;8.32;;;15.00;99.90;;;;;;5085016;28;20116;-69
2022/05/20 01:05:59;;;;;;;10.13;8.25;;;14.90;99.90;;;;;;5086203;28;21368;-69
2022/05/20 01:08:28;;;;;;;11.82;8.52;;;14.90;99.90;;;;;;5092008;28;20044;-69
2022/05/20 01:10:54;;;;;;;9.57;7.93;;;14.80;99.90;;;;;;5091089;28;20052;-69
2022/05/20 01:13:23;;;;;;;11.38;8.07;;;14.80;99.90;;;;;;5088379;28;20040;-69
2022/05/20 01:15:48;;;;;;;10.50;7.68;;;14.80;99.90;;;;;;5101903;28;20044;-68
2022/05/20 01:18:15;;;;;;;10.93;7.57;;;14.80;99.90;;;;;;5094114;28;20113;-69
2022/05/20 01:20:45;;;;;;;10.02;7.38;;;14.80;99.90;;;;;;5102138;28;20509;-68
2022/05/20 01:23:14;;;;;;;11.00;7.10;;;14.80;99.90;;;;;;5099902;28;20134;-68
2022/05/20 01:25:42;;;;;;;10.20;7.63;;;14.80;99.90;;;;;;5085621;28;20086;-68
2022/05/20 01:28:08;;;;;;;10.40;7.50;;;14.70;99.90;;;;;;5097398;28;20491;-69
2022/05/20 01:30:34;;;;;;;9.52;7.18;;;14.70;99.90;;;;;;5100499;28;20051;-69
2022/05/20 01:33:05;;;;;;;8.05;6.80;;;14.70;99.90;;;;;;5092927;28;20060;-68
2022/05/20 01:35:41;;;;;;;9.07;7.32;;;14.70;99.90;;;;;;5102917;28;20059;-68
2022/05/20 01:38:11;;;;;;;9.18;6.88;;;14.70;99.90;;;;;;5107281;28;20039;-69
2022/05/20 01:41:04;;;;;;;9.70;6.82;;;14.70;99.90;;;;;;5093526;28;20039;-69
2022/05/20 01:43:51;;;;;;;8.90;7.18;;;14.70;99.90;;;;;;5099461;28;20064;-69
2022/05/20 01:46:41;;;;;;;9.23;7.28;;;14.70;99.90;;;;;;5097749;28;20052;-69
2022/05/20 01:49:19;;;;;;;9.80;7.15;;;14.70;99.90;;;;;;5100767;28;20051;-69
2022/05/20 01:51:59;;;;;;;9.23;7.25;;;14.70;99.90;;;;;;5103421;28;20079;-69
2022/05/20 01:54:45;;;;;;;9.00;7.32;;;14.70;99.90;;;;;;5100907;28;20067;-69
2022/05/20 01:57:16;;;;;;;10.10;7.30;;;14.60;99.90;;;;;;5079647;28;20056;-69
2022/05/20 01:59:47;;;;;;;9.27;7.43;;;14.70;99.90;;;;;;5094975;28;20036;-69
2022/05/20 02:02:49;;;;;;;11.07;7.35;;;14.70;99.90;;;;;;5092780;28;20164;-69
2022/05/20 02:05:33;;;;;;;11.38;7.38;;;14.70;99.90;;;;;;5025447;28;20408;-69
2022/05/20 02:08:04;;;;;;;8.25;6.53;;;14.70;99.90;;;;;;5099503;28;20081;-69
2022/05/20 02:10:44;;;;;;;9.95;6.75;;;14.80;99.90;;;;;;5104974;28;20070;-69
2022/05/20 02:13:13;;;;;;;8.95;6.22;;;14.80;99.90;;;;;;5102708;28;20403;-68
2022/05/20 02:15:47;;;;;;;7.93;6.40;;;14.80;99.90;;;;;;5098023;28;20078;-69
2022/05/20 02:18:19;;;;;;;10.05;6.45;;;14.80;99.90;;;;;;5092756;28;20075;-69
2022/05/20 02:20:51;;;;;;;8.93;7.10;;;14.80;99.90;;;;;;5107136;28;20038;-69
2022/05/20 02:23:31;;;;;;;9.75;7.43;;;14.70;99.90;;;;;;5100555;28;20052;-69
2022/05/20 02:26:03;;;;;;;9.20;7.15;;;14.70;99.90;;;;;;5087374;28;20412;-69
2022/05/20 02:28:35;;;;;;;9.70;6.95;;;14.60;99.90;;;;;;5102730;28;20035;-68
2022/05/20 02:31:04;;;;;;;9.57;7.28;;;14.60;99.90;;;;;;5087382;28;20138;-68
2022/05/20 02:33:31;;;;;;;9.45;7.07;;;14.60;99.90;;;;;;5087531;28;20056;-68
2022/05/20 02:36:05;;;;;;;8.57;6.70;;;14.60;99.90;;;;;;5107923;28;20876;-68
2022/05/20 02:38:31;;;;;;;10.52;6.68;;;14.70;99.90;;;;;;5087484;28;20052;-68
2022/05/20 02:40:57;;;;;;;9.93;7.03;;;14.70;99.90;;;;;;5105593;28;20055;-68
2022/05/20 02:43:23;;;;;;;10.48;6.78;;;14.60;99.90;;;;;;5097443;28;20051;-68
2022/05/20 02:45:50;;;;;;;8.98;6.70;;;14.70;99.90;;;;;;5106447;28;20118;-68
2022/05/20 02:48:18;;;;;;;9.68;7.38;;;14.70;99.90;;;;;;5087217;28;20075;-68
2022/05/20 02:50:44;;;;;;;9.80;7.15;;;14.70;99.90;;;;;;5103922;28;20078;-68
2022/05/20 02:53:10;;;;;;;11.90;7.22;;;14.70;99.90;;;;;;5106730;28;20490;-68
2022/05/20 02:55:37;;;;;;;9.95;6.53;;;14.70;99.90;;;;;;5103334;28;20043;-68
2022/05/20 02:58:03;;;;;;;8.65;6.47;;;14.70;99.90;;;;;;5086937;28;20093;-68
2022/05/20 03:06:02;;;;;;;10.00;7.88;;;14.70;99.90;;;;;;5106735;28;20088;-69
2022/05/20 03:08:28;;;;;;;10.23;7.95;;;14.60;99.90;;;;;;5089718;28;20091;-68
2022/05/20 03:10:54;;;;;;;9.18;7.78;;;14.60;99.90;;;;;;5103784;28;20052;-68
2022/05/20 03:13:20;;;;;;;9.95;8.07;;;14.60;99.90;;;;;;5108402;28;20044;-68
2022/05/20 03:15:45;;;;;;;10.57;8.55;;;14.60;99.90;;;;;;5088703;28;20047;-68
2022/05/20 03:18:13;;;;;;;11.57;8.10;;;14.50;99.90;;;;;;5103549;28;20046;-68
2022/05/20 03:20:41;;;;;;;12.07;8.25;;;14.50;99.90;;;;;;5106672;28;20036;-68
2022/05/20 03:23:07;;;;;;;11.93;8.88;;;14.40;99.90;;;;;;5111131;28;20399;-68
2022/05/20 03:25:37;;;;;;;10.30;8.30;;;14.40;99.90;;;;;;5112419;28;20071;-68
2022/05/20 03:28:03;;;;;;;10.52;8.90;;;14.30;99.90;;;;;;5097547;28;20594;-68
2022/05/20 03:30:29;;;;;;;11.98;8.90;;;14.30;99.90;;;;;;5103249;28;20522;-68
2022/05/20 03:32:54;;;;;;;11.00;8.82;;;14.30;99.90;;;;;;5103732;28;20040;-68
2022/05/20 03:35:20;;;;;;;9.77;8.52;;;14.20;99.90;;;;;;5111696;28;20665;-68
2022/05/20 03:37:46;;;;;;;11.05;8.52;;;14.20;99.90;;;;;;5093779;28;20455;-68
2022/05/20 03:40:11;;;;;;;10.40;8.50;;;14.10;99.90;;;;;;5089678;28;20047;-68
2022/05/20 03:42:37;;;;;;;11.07;8.98;;;14.10;99.90;;;;;;5107984;28;20134;-68
2022/05/20 03:45:04;;;;;;;12.82;9.57;;;14.10;99.90;;;;;;5112059;28;20047;-68
2022/05/20 03:47:29;;;;;;;11.90;9.15;;;14.10;99.90;;;;;;5108424;28;20039;-68
2022/05/20 03:49:55;;;;;;;12.50;9.20;;;14.10;99.90;;;;;;5111408;28;20768;-68
2022/05/20 03:52:20;;;;;;;13.15;9.40;;;14.10;99.90;;;;;;5099812;28;20050;-68
2022/05/20 03:54:46;;;;;;;12.88;9.38;;;14.10;99.90;;;;;;5111649;28;20530;-68
2022/05/20 03:57:12;;;;;;;11.77;8.98;;;14.20;99.90;;;;;;5086258;28;20044;-68
2022/05/20 03:59:37;;;;;;;16.58;9.75;;;14.20;99.90;;;;;;5108646;28;20147;-68
2022/05/20 04:02:11;;;;;;;12.30;9.55;;;14.20;99.90;;;;;;5108824;28;20131;-68
2022/05/20 04:04:40;;;;;;;12.45;10.18;;;14.30;99.90;;;;;;5110871;28;20043;-68
2022/05/20 04:07:09;;;;;;;21.30;18.60;;;14.30;99.90;;;;;;5101881;28;20054;-68
2022/05/20 04:09:34;;;;;;;38.33;34.20;;;14.30;99.90;;;;;;5103470;28;20040;-68
2022/05/20 04:12:03;;;;;;;61.72;52.20;;;14.30;99.90;;;;;;5090986;28;20050;-68
2022/05/20 04:14:30;;;;;;;52.30;44.75;;;14.30;99.90;;;;;;5090560;28;20039;-68
2022/05/20 04:16:57;;;;;;;39.20;34.95;;;14.30;99.90;;;;;;5088173;28;20138;-68
2022/05/20 04:19:28;;;;;;;34.55;30.42;;;14.40;99.90;;;;;;5092795;28;20043;-68
2022/05/20 04:21:57;;;;;;;28.10;24.25;;;14.40;99.90;;;;;;5108766;28;20051;-68
2022/05/20 04:24:23;;;;;;;17.35;13.73;;;14.40;99.90;;;;;;5102151;28;20051;-68
2022/05/20 04:26:49;;;;;;;13.75;10.77;;;14.50;99.90;;;;;;5095782;28;20403;-68
2022/05/20 04:29:15;;;;;;;12.73;10.60;;;14.50;99.90;;;;;;5105949;28;20379;-68
2022/05/20 04:31:45;;;;;;;12.57;10.95;;;14.50;99.90;;;;;;5109123;28;20336;-68
2022/05/20 04:34:11;;;;;;;11.85;10.35;;;14.50;99.90;;;;;;5106222;28;20082;-68
2022/05/20 04:36:36;;;;;;;13.27;10.30;;;14.50;99.90;;;;;;5109067;28;21071;-68
2022/05/20 04:39:02;;;;;;;14.63;10.25;;;14.50;99.90;;;;;;5089118;28;20074;-68
2022/05/20 04:47:18;;;;;;;15.40;10.38;;;14.50;99.90;;;;;;5097697;28;20514;-68
2022/05/20 04:49:44;;;;;;;15.02;10.02;;;14.50;99.90;;;;;;5094716;28;20568;-68
2022/05/20 04:52:10;;;;;;;11.75;10.00;;;14.50;99.90;;;;;;5097942;28;20126;-68
2022/05/20 04:54:51;;;;;;;11.75;9.05;;;14.50;99.90;;;;;;5108394;28;20201;-68
2022/05/20 04:57:21;;;;;;;12.07;9.75;;;14.60;99.90;;;;;;5095098;28;20054;-68
2022/05/20 04:59:48;;;;;;;13.48;9.82;;;14.50;99.90;;;;;;5092190;28;20052;-68
2022/05/20 05:02:13;;;;;;;11.95;9.32;;;14.50;99.90;;;;;;5105823;28;20039;-68
2022/05/20 05:04:39;;;;;;;12.27;9.07;;;14.50;99.90;;;;;;5097459;28;20117;-68
2022/05/20 05:07:09;;;;;;;11.57;8.23;;;14.50;99.90;;;;;;5103266;28;20044;-68
2022/05/20 05:09:39;;;;;;;11.52;8.65;;;14.50;99.90;;;;;;5089178;28;20048;-68
2022/05/20 05:12:06;;;;;;;10.43;8.82;;;14.60;99.90;;;;;;5102412;28;20054;-68
2022/05/20 05:14:36;;;;;;;13.32;8.27;;;14.60;99.90;;;;;;5086875;28;20143;-69
2022/05/20 05:17:08;;;;;;;11.13;8.25;;;14.50;99.90;;;;;;5091833;28;20491;-69
2022/05/20 05:19:35;;;;;;;9.60;8.15;;;14.60;99.90;;;;;;5100566;28;20039;-69
2022/05/20 05:22:01;;;;;;;10.45;7.82;;;14.60;99.90;;;;;;5107799;28;20044;-69
2022/05/20 05:24:27;;;;;;;12.05;8.15;;;14.50;99.90;;;;;;5098464;28;20123;-69
2022/05/20 05:26:52;;;;;;;11.70;8.23;;;14.60;99.90;;;;;;5095675;28;20099;-68
2022/05/20 05:29:18;;;;;;;12.45;8.30;;;14.60;99.90;;;;;;5089118;28;20075;-70
2022/05/20 05:31:44;;;;;;;10.50;8.05;;;14.60;99.90;;;;;;5099718;28;20431;-69
2022/05/20 05:34:10;;;;;;;12.48;8.10;;;14.60;99.90;;;;;;5086952;28;20048;-69
2022/05/20 05:36:36;;;;;;;10.23;7.70;;;14.60;99.90;;;;;;5081856;28;20400;-66
2022/05/20 05:39:02;;;;;;;12.98;8.32;;;14.60;99.90;;;;;;5087721;28;20153;-67
2022/05/20 05:41:28;;;;;;;10.57;7.70;;;14.70;99.90;;;;;;5087244;28;20058;-67
2022/05/20 05:43:54;;;;;;;11.35;7.72;;;14.70;99.90;;;;;;5090389;28;20036;-67
2022/05/20 05:46:20;;;;;;;11.98;7.82;;;14.70;99.90;;;;;;5101602;28;20114;-69
2022/05/20 05:48:45;;;;;;;10.85;8.18;;;14.70;99.90;;;;;;5106515;28;20127;-71
2022/05/20 05:51:12;;;;;;;11.75;7.88;;;14.80;99.90;;;;;;5093790;28;20127;-71
2022/05/20 05:53:38;;;;;;;13.48;8.02;;;14.80;99.90;;;;;;5083089;28;20098;-71
2022/05/20 05:56:06;;;;;;;10.00;7.75;;;14.90;99.90;;;;;;5101349;28;20090;-71
2022/05/20 05:58:32;;;;;;;13.82;8.27;;;14.90;99.90;;;;;;5081404;28;20082;-73
2022/05/20 06:00:58;;;;;;;13.30;8.30;;;14.90;99.90;;;;;;5091035;28;20040;-71
2022/05/20 06:03:24;;;;;;;11.23;7.47;;;15.00;99.90;;;;;;5084578;28;20085;-69
2022/05/20 06:05:50;;;;;;;11.27;8.13;;;15.00;99.90;;;;;;5088457;28;20040;-69
2022/05/20 06:08:16;;;;;;;12.55;7.78;;;15.10;99.90;;;;;;5081563;28;20050;-69
2022/05/20 06:10:42;;;;;;;11.85;9.20;;;15.00;99.90;;;;;;5083131;28;20048;-69
2022/05/20 06:13:09;;;;;;;12.77;9.00;;;15.10;99.90;;;;;;5079609;28;20048;-69
2022/05/20 06:15:36;;;;;;;13.18;9.60;;;15.20;99.90;;;;;;5092045;28;20146;-69
2022/05/20 06:18:02;;;;;;;;;;;15.20;99.90;;;;;;5087135;28;20075;-69
2022/05/20 06:20:28;;;;;;;12.18;10.35;;;15.30;99.90;;;;;;5088119;28;19959;-69
2022/05/20 06:22:54;;;;;;;13.40;9.55;;;15.40;99.90;;;;;;5085767;28;20052;-69
2022/05/20 06:25:20;;;;;;;12.75;9.88;;;15.50;99.90;;;;;;5099736;28;20046;-69
2022/05/20 06:27:46;;;;;;;12.70;9.80;;;15.50;99.90;;;;;;5095540;28;20043;-69
2022/05/20 06:30:14;;;;;;;11.18;8.73;;;15.70;99.90;;;;;;5088269;28;20647;-69
2022/05/20 06:32:40;;;;;;;12.30;9.23;;;15.70;99.90;;;;;;5083918;28;20395;-68
2022/05/20 06:40:40;;;;;;;12.10;9.07;;;15.90;99.90;;;;;;5104985;28;20056;-67
2022/05/20 06:43:05;;;;;;;10.40;9.05;;;16.10;99.90;;;;;;5072543;28;20531;-67
2022/05/20 06:45:32;;;;;;;10.80;8.38;;;16.20;99.90;;;;;;5097248;28;20050;-69
2022/05/20 06:47:58;;;;;;;10.57;8.15;;;16.30;99.90;;;;;;5089018;28;20564;-69
2022/05/20 06:50:24;;;;;;;11.35;8.82;;;16.30;99.90;;;;;;5094030;28;20121;-73
2022/05/20 06:52:50;;;;;;;9.85;8.68;;;16.30;99.90;;;;;;5101936;28;20065;-73
2022/05/20 06:55:15;;;;;;;13.20;9.02;;;16.30;99.90;;;;;;5093314;28;20045;-73
2022/05/20 06:57:41;;;;;;;10.63;7.88;;;16.30;99.90;;;;;;5109228;28;20043;-71
2022/05/20 07:00:11;;;;;;;11.73;8.80;;;16.30;99.90;;;;;;5102752;28;20051;-71
2022/05/20 07:02:38;;;;;;;10.32;8.00;;;16.30;99.90;;;;;;5104957;28;20435;-72
2022/05/20 07:05:04;;;;;;;9.40;7.57;;;16.40;99.90;;;;;;5092039;28;20133;-71
2022/05/20 07:07:31;;;;;;;12.00;7.30;;;16.30;99.90;;;;;;5107671;28;20108;-72
2022/05/20 07:09:57;;;;;;;10.15;7.38;;;16.40;99.90;;;;;;5102760;28;20109;-72
2022/05/20 07:12:22;;;;;;;11.02;7.18;;;16.40;99.90;;;;;;5092262;28;20032;-73
2022/05/20 07:14:48;;;;;;;10.38;7.07;;;16.50;99.90;;;;;;5090826;28;20598;-72
2022/05/20 07:17:18;;;;;;;10.45;7.60;;;16.60;99.90;;;;;;5090901;28;20042;-72
2022/05/20 07:19:44;;;;;;;10.55;7.00;;;16.70;99.90;;;;;;5090578;28;20047;-72
2022/05/20 07:22:09;;;;;;;8.50;6.78;;;16.80;99.90;;;;;;5102937;28;20050;-73
2022/05/20 07:24:37;;;;;;;8.65;6.85;;;16.80;99.90;;;;;;5099865;28;20111;-72
2022/05/20 07:27:03;;;;;;;9.85;6.57;;;17.00;99.90;;;;;;5074481;28;20046;-74
2022/05/20 07:29:29;;;;;;;11.40;6.93;;;17.20;99.90;;;;;;5098913;28;20054;-71
2022/05/20 07:31:54;;;;;;;8.68;6.65;;;17.30;99.90;;;;;;5102818;28;20048;-71
2022/05/20 07:34:20;;;;;;;7.47;5.78;;;17.50;99.90;;;;;;5094251;28;20187;-72
2022/05/20 07:36:46;;;;;;;10.70;7.30;;;17.70;99.90;;;;;;5094455;28;20060;-72
2022/05/20 07:39:11;;;;;;;10.77;8.60;;;17.70;99.90;;;;;;5093160;28;20035;-71
2022/05/20 07:41:37;;;;;;;10.63;7.30;;;17.70;99.90;;;;;;5090233;28;20079;-72
2022/05/20 07:44:03;;;;;;;11.07;7.82;;;17.70;99.90;;;;;;5084495;28;20922;-72
2022/05/20 07:46:29;;;;;;;10.03;8.47;;;17.60;99.90;;;;;;5085032;28;20840;-73
2022/05/20 07:48:54;;;;;;;9.23;7.70;;;17.50;99.90;;;;;;5085306;28;20048;-76
2022/05/20 07:51:24;;;;;;;12.43;8.45;;;17.40;99.90;;;;;;5103568;28;20148;-74
2022/05/20 07:53:59;;;;;;;12.68;8.23;;;17.40;99.90;;;;;;5098856;27;20051;-75
2022/05/20 07:56:49;;;;;;;11.02;7.88;;;17.30;99.90;;;;;;5104080;28;20050;-78
2022/05/20 07:59:21;;;;;;;10.35;8.02;;;17.30;99.90;;;;;;5089345;28;20394;-75
2022/05/20 08:01:52;;;;;;;11.07;8.10;;;17.40;99.90;;;;;;5086031;28;20089;-74
2022/05/20 08:07:15;;;;;;;;;;;17.50;99.90;;;;;;5087884;28;20079;-75
2022/05/20 08:09:40;;;;;;;11.07;7.88;;;17.50;99.90;;;;;;5101660;28;19973;-74
2022/05/20 08:12:07;;;;;;;9.88;8.13;;;17.60;99.90;;;;;;5088725;28;20075;-75
2022/05/20 08:14:35;;;;;;;12.45;9.07;;;17.70;99.90;;;;;;5094663;28;20040;-78
2022/05/20 08:17:02;;;;;;;9.43;8.13;;;17.80;99.90;;;;;;5097218;28;20043;-75
2022/05/20 08:19:29;;;;;;;10.50;7.45;;;17.90;99.90;;;;;;5088971;28;20043;-76
2022/05/20 08:21:55;;;;;;;9.27;7.28;;;18.00;99.90;;;;;;5091136;28;20463;-81
2022/05/20 08:24:21;;;;;;;9.82;6.88;;;18.10;99.90;;;;;;5084268;28;20100;-78
2022/05/20 08:26:47;;;;;;;11.52;7.32;;;18.30;99.90;;;;;;5097251;28;20036;-79
2022/05/20 08:29:13;;;;;;;10.98;7.50;;;18.30;99.90;;;;;;5084038;28;20040;-79
2022/05/20 08:31:44;;;;;;;8.35;7.03;;;18.40;99.90;;;;;;5096191;28;20052;-77
2022/05/20 08:34:11;;;;;;;9.27;7.28;;;18.60;99.90;;;;;;5087488;28;20040;-76
2022/05/20 08:36:41;;;;;;;12.60;7.57;;;18.70;99.90;;;;;;5108274;28;20077;-73
2022/05/20 08:39:10;;;;;;;10.77;7.57;;;18.80;99.90;;;;;;5107031;28;20035;-71
2022/05/20 08:41:55;;;;;;;8.40;6.95;;;18.90;99.90;;;;;;5081349;28;20122;-72
2022/05/20 08:44:24;;;;;;;9.77;7.60;;;19.00;99.90;;;;;;5101658;28;20042;-72
2022/05/20 08:46:50;;;;;;;9.93;7.25;;;19.00;99.90;;;;;;5108894;28;20039;-72
2022/05/20 08:49:21;;;;;;;10.77;7.73;;;18.90;99.90;;;;;;5105740;28;20135;-73
2022/05/20 08:51:50;;;;;;;9.70;6.95;;;19.00;99.90;;;;;;5096469;28;20482;-74
2022/05/20 08:54:16;;;;;;;8.63;7.80;;;19.20;99.90;;;;;;5091081;28;20055;-72
2022/05/20 08:56:44;;;;;;;9.48;6.95;;;19.30;99.90;;;;;;5087811;28;20044;-75
2022/05/20 08:59:13;;;;;;;9.35;7.30;;;19.50;99.90;;;;;;5095901;28;20087;-73
2022/05/20 09:01:47;;;;;;;7.88;7.07;;;19.60;99.90;;;;;;5092322;28;20119;-75
2022/05/20 09:04:16;;;;;;;9.35;8.45;;;19.70;99.90;;;;;;5083663;28;20054;-71
2022/05/20 09:07:11;;;;;;;9.20;8.30;;;19.70;99.90;;;;;;5089872;28;20039;-72
2022/05/20 09:09:42;;;;;;;10.10;8.55;;;19.60;99.90;;;;;;5102015;28;20054;-75
2022/05/20 09:12:08;;;;;;;9.55;8.52;;;19.40;99.90;;;;;;5087192;28;20044;-76
2022/05/20 09:17:22;;;;;;;11.57;7.70;;;19.50;99.90;;;;;;5089834;28;20499;-73
2022/05/20 09:20:05;;;;;;;8.55;7.65;;;19.50;99.90;;;;;;5088575;28;20146;-75
2022/05/20 09:22:37;;;;;;;10.27;8.25;;;19.60;99.90;;;;;;5108605;28;20383;-74
2022/05/20 09:25:11;;;;;;;12.60;9.00;;;19.70;99.90;;;;;;5110457;28;20043;-74
2022/05/20 09:27:39;;;;;;;9.93;8.38;;;19.80;99.90;;;;;;5092590;28;20050;-73
2022/05/20 09:30:12;;;;;;;10.02;7.85;;;19.90;99.90;;;;;;5090005;28;20120;-74
2022/05/20 09:32:54;;;;;;;9.73;7.68;;;19.90;99.90;;;;;;5084019;28;20044;-77
2022/05/20 09:35:20;;;;;;;9.20;7.35;;;20.00;99.90;;;;;;5087010;28;20497;-77
2022/05/20 09:37:48;;;;;;;8.90;7.63;;;20.10;99.90;;;;;;5094918;28;20039;-73
2022/05/20 09:40:31;;;;;;;8.60;6.70;;;20.30;99.90;;;;;;5107416;28;20128;-74
2022/05/20 09:43:10;;;;;;;7.47;6.72;;;20.40;99.90;;;;;;5108224;28;20129;-75
2022/05/20 09:45:47;;;;;;;8.10;7.22;;;20.60;99.90;;;;;;5088029;28;20095;-76
2022/05/20 09:48:25;;;;;;;8.57;5.90;;;20.60;99.90;;;;;;5086156;28;20480;-75
2022/05/20 09:51:15;;;;;;;8.38;6.43;;;20.70;99.90;;;;;;5087542;28;20122;-76
2022/05/20 09:53:43;;;;;;;7.68;6.28;;;20.70;99.90;;;;;;5098570;28;20051;-74
2022/05/20 09:56:17;;;;;;;8.02;6.07;;;20.80;99.90;;;;;;5100258;28;20052;-76
2022/05/20 09:59:08;;;;;;;7.75;6.28;;;20.80;99.90;;;;;;5096560;28;20094;-74
2022/05/20 10:01:36;;;;;;;7.00;6.00;;;20.90;99.90;;;;;;5082902;28;20065;-70
2022/05/20 10:04:07;;;;;;;9.43;7.25;;;20.90;99.90;;;;;;5079716;28;20071;-71
2022/05/20 10:06:48;;;;;;;8.07;5.32;;;21.00;99.90;;;;;;5089570;28;20047;-70
2022/05/20 10:09:26;;;;;;;6.60;5.53;;;21.00;99.90;;;;;;5092597;28;20043;-73
2022/05/20 10:11:57;;;;;;;6.25;5.38;;;21.00;99.90;;;;;;5103509;28;20039;-70
2022/05/20 10:14:52;;;;;;;7.75;5.72;;;21.00;99.80;;;;;;5106570;28;20111;-73
2022/05/20 10:17:46;;;;;;;7.22;5.43;;;21.00;98.10;;;;;;5097298;28;20565;-70
2022/05/20 10:20:16;;;;;;;6.10;5.10;;;21.10;99.90;;;;;;5085284;28;20051;-73
2022/05/20 10:23:19;;;;;;;6.05;5.15;;;21.10;99.30;;;;;;5088761;28;20188;-70
2022/05/20 10:26:00;;;;;;;8.07;4.72;;;21.20;99.50;;;;;;5089497;28;20047;-72
2022/05/20 10:34:11;;;;;;;5.70;4.63;;;21.30;99.90;;;;;;5109484;28;20051;-71
2022/05/20 10:36:52;;;;;;;7.97;5.47;;;21.30;99.90;;;;;;5097190;28;20159;-73
2022/05/20 10:39:41;;;;;;;5.05;4.50;;;21.40;99.90;;;;;;5104225;28;20549;-75
2022/05/20 10:42:41;;;;;;;7.75;3.85;;;21.50;99.00;;;;;;5101293;28;20095;-74
2022/05/20 10:51:15;;;;;;;7.63;4.50;;;21.60;99.50;;;;;;5097120;28;20055;-72
2022/05/20 10:53:55;;;;;;;7.00;5.60;;;21.60;99.80;;;;;;5091334;28;20143;-71
2022/05/20 10:56:56;;;;;;;7.35;5.20;;;21.60;98.90;;;;;;5106907;28;20482;-72
2022/05/20 10:59:48;;;;;;;5.95;4.10;;;21.60;97.10;;;;;;5084688;28;20055;-72
2022/05/20 11:02:29;;;;;;;7.60;6.15;;;21.60;96.00;;;;;;5093300;28;20597;-72
2022/05/20 11:05:15;;;;;;;8.70;7.55;;;21.70;97.40;;;;;;5092637;28;20040;-74
2022/05/20 11:07:56;;;;;;;8.63;7.72;;;21.80;98.50;;;;;;5096241;28;20052;-73
2022/05/20 11:10:51;;;;;;;10.10;8.50;;;21.90;96.90;;;;;;5088060;28;20047;-74
2022/05/20 11:13:52;;;;;;;9.52;7.80;;;22.00;98.10;;;;;;5088695;28;20040;-71
2022/05/20 11:16:47;;;;;;;10.48;7.90;;;22.00;97.50;;;;;;5104357;28;20063;-72
2022/05/20 11:19:27;;;;;;;11.13;8.82;;;22.10;97.50;;;;;;5108656;27;20051;-71
2022/05/20 11:21:52;;;;;;;10.25;9.15;;;22.10;95.70;;;;;;5086001;28;20044;-71
2022/05/20 11:24:35;;;;;;;10.80;8.57;;;22.10;94.30;;;;;;5096182;28;20046;-71
2022/05/20 11:27:09;;;;;;;7.70;6.93;;;22.10;96.70;;;;;;5090883;28;20048;-70
2022/05/20 11:29:52;;;;;;;6.25;5.65;;;22.20;97.00;;;;;;5104775;28;20044;-72
2022/05/20 11:32:51;;;;;;;7.15;5.18;;;22.20;94.50;;;;;;5080750;28;20071;-71
2022/05/20 11:35:29;;;;;;;8.30;6.75;;;22.30;91.40;;;;;;5088397;28;20381;-72
2022/05/20 11:38:03;;;;;;;9.65;8.75;;;22.40;94.70;;;;;;5090379;28;20059;-71
2022/05/20 11:41:02;;;;;;;8.90;8.00;;;22.60;99.50;;;;;;5094631;28;20052;-72
2022/05/20 11:43:53;;;;;;;14.48;12.98;;;22.80;97.80;;;;;;5086070;28;20101;-72
2022/05/20 11:47:00;;;;;;;11.90;10.77;;;22.90;96.90;;;;;;5098983;28;20529;-71
2022/05/20 11:49:46;;;;;;;12.25;9.35;;;22.90;99.90;;;;;;5088914;27;20048;-72
2022/05/20 11:52:56;;;;;;;11.77;10.60;;;23.10;98.10;;;;;;5085087;28;20135;-71
2022/05/20 11:55:32;;;;;;;11.15;9.98;;;23.10;96.30;;;;;;5109359;28;20136;-72
2022/05/20 11:58:05;;;;;;;10.13;9.13;;;23.10;96.00;;;;;;5104976;27;20047;-74
2022/05/20 12:00:34;;;;;;;9.98;8.40;;;23.10;94.60;;;;;;5093110;28;20038;-72
2022/05/20 12:03:08;;;;;;;9.70;7.13;;;23.10;92.60;;;;;;5108953;28;20048;-78
2022/05/20 12:05:39;;;;;;;8.02;6.95;;;23.10;92.60;;;;;;5097967;28;20039;-72
2022/05/20 12:08:05;;;;;;;8.55;7.57;;;23.10;91.30;;;;;;5110104;28;20578;-73
2022/05/20 12:10:31;;;;;;;10.55;8.90;;;23.10;91.20;;;;;;5102837;28;20119;-73
2022/05/20 12:13:24;;;;;;;9.13;8.23;;;23.20;93.00;;;;;;5111112;28;20083;-72
2022/05/20 12:16:12;;;;;;;11.07;8.50;;;23.30;93.90;;;;;;5089057;28;20177;-71
2022/05/20 12:24:47;;;;;;;12.43;9.32;;;23.30;93.20;;;;;;5097226;28;20040;-69
2022/05/20 12:27:24;;;;;;;11.52;10.32;;;23.30;92.80;;;;;;5102520;28;20039;-70
2022/05/20 12:30:04;;;;;;;10.93;9.93;;;23.30;93.50;;;;;;5111228;28;20122;-69
2022/05/20 12:32:31;;;;;;;10.95;9.82;;;23.30;95.70;;;;;;5089577;28;20041;-70
2022/05/20 12:35:08;;;;;;;10.95;8.68;;;23.40;93.80;;;;;;5089667;28;20429;-70
2022/05/20 12:37:43;;;;;;;7.82;7.00;;;23.30;87.60;;;;;;5088837;28;20070;-70
2022/05/20 12:40:16;;;;;;;10.38;8.32;;;23.30;88.20;;;;;;5079443;28;20113;-73
2022/05/20 12:42:54;;;;;;;9.73;7.72;;;23.30;90.10;;;;;;5090875;28;20048;-73
2022/05/20 12:45:24;;;;;;;10.63;7.63;;;23.20;92.30;;;;;;5087994;28;20048;-73
2022/05/20 12:47:50;;;;;;;9.27;6.75;;;23.30;90.20;;;;;;5108229;28;20051;-73
2022/05/20 12:50:16;;;;;;;8.02;7.22;;;23.20;86.40;;;;;;5099707;28;20040;-72
2022/05/20 12:53:06;;;;;;;7.60;6.47;;;23.20;81.70;;;;;;5102198;28;20043;-72
2022/05/20 12:55:43;;;;;;;8.40;6.05;;;23.10;79.50;;;;;;5103309;28;20477;-69
2022/05/20 12:58:13;;;;;;;7.75;6.75;;;23.00;81.60;;;;;;5089071;28;20165;-71
2022/05/20 13:00:51;;;;;;;7.88;6.35;;;22.90;90.20;;;;;;5089556;28;20043;-70
2022/05/20 13:03:37;;;;;;;9.00;8.00;;;22.90;90.70;;;;;;5087420;28;20055;-70
2022/05/20 13:06:14;;;;;;;10.37;7.20;;;22.80;92.90;;;;;;5081779;28;20052;-71
2022/05/20 13:08:49;;;;;;;8.30;5.88;;;22.70;92.00;;;;;;5092034;28;20521;-74
2022/05/20 13:11:20;;;;;;;6.93;6.05;;;22.70;91.40;;;;;;5090468;28;20163;-72
2022/05/20 13:13:49;;;;;;;9.18;7.00;;;22.70;91.50;;;;;;5088577;28;20123;-71
2022/05/20 13:16:15;;;;;;;8.60;6.53;;;22.60;90.70;;;;;;5087636;28;20055;-69
2022/05/20 13:18:43;;;;;;;9.25;6.60;;;22.40;90.80;;;;;;5098298;28;20044;-71
2022/05/20 13:21:17;;;;;;;7.38;6.63;;;22.30;90.70;;;;;;5093097;28;20051;-71
2022/05/20 13:23:47;;;;;;;8.85;6.78;;;22.30;92.30;;;;;;5101540;28;20114;-70
2022/05/20 13:26:33;;;;;;;7.25;6.28;;;22.20;91.90;;;;;;5077341;28;20072;-70
2022/05/20 13:29:12;;;;;;;8.88;6.20;;;22.10;91.70;;;;;;5085046;28;21191;-71
2022/05/20 13:31:38;;;;;;;9.20;6.13;;;22.00;94.10;;;;;;5085205;28;20136;-71
2022/05/20 13:34:05;;;;;;;8.65;6.25;;;21.90;93.80;;;;;;5080658;28;20562;-70
2022/05/20 13:36:39;;;;;;;8.57;6.10;;;21.70;95.50;;;;;;5080944;28;20097;-69
2022/05/20 13:39:05;;;;;;;10.27;5.68;;;21.70;96.40;;;;;;5082558;28;20044;-69
2022/05/20 13:41:33;;;;;;;9.13;6.13;;;21.60;97.50;;;;;;5080205;28;20089;-70
2022/05/20 13:44:04;;;;;;;11.20;6.25;;;21.50;97.40;;;;;;5099282;28;20509;-71